createdAt,value
2019-04-28T00:00:36.611Z,3.72
2019-04-28T00:01:42.419Z,3.75
2019-04-28T00:02:45.708Z,3.10
2019-04-28T00:03:49.294Z,4.03
2019-04-28T00:04:52.867Z,3.12
2019-04-28T00:05:56.140Z,3.42
2019-04-28T00:07:01.626Z,2.87
2019-04-28T00:08:04.810Z,3.85
2019-04-28T00:09:08.643Z,3.05
2019-04-28T00:10:12.098Z,3.17
2019-04-28T00:11:15.975Z,3.27
2019-04-28T00:12:21.034Z,2.87
2019-04-28T00:13:24.761Z,3.20
2019-04-28T00:14:28.372Z,3.83
2019-04-28T00:15:31.490Z,3.87
2019-04-28T00:16:34.866Z,3.50
2019-04-28T00:17:38.143Z,3.15
2019-04-28T00:18:41.744Z,3.58
2019-04-28T00:19:44.906Z,3.22
2019-04-28T00:21:10.932Z,3.72
2019-04-28T00:22:22.938Z,3.58
2019-04-28T00:23:57.134Z,4.20
2019-04-28T00:25:08.266Z,3.67
2019-04-28T00:26:48.833Z,3.30
2019-04-28T00:27:52.196Z,3.10
2019-04-28T00:28:55.782Z,4.22
2019-04-28T00:29:59.423Z,3.80
2019-04-28T00:31:03.065Z,3.42
2019-04-28T00:32:06.340Z,3.20
2019-04-28T00:33:11.679Z,2.77
2019-04-28T00:34:15.650Z,3.30
2019-04-28T00:35:19.226Z,2.95
2019-04-28T00:36:22.324Z,3.47
2019-04-28T00:37:28.851Z,3.42
2019-04-28T00:38:32.720Z,3.15
2019-04-28T00:39:36.330Z,3.52
2019-04-28T00:40:41.374Z,3.00
2019-04-28T00:41:44.782Z,3.75
2019-04-28T00:42:48.397Z,3.02
2019-04-28T00:43:52.070Z,3.40
2019-04-28T00:44:56.018Z,3.42
2019-04-28T00:46:00.969Z,3.95
2019-04-28T00:47:04.633Z,3.45
2019-04-28T00:48:07.921Z,3.95
2019-04-28T00:49:11.855Z,3.25
2019-04-28T00:50:15.697Z,3.35
2019-04-28T00:51:19.619Z,3.80
2019-04-28T00:52:24.406Z,3.20
2019-04-28T00:53:27.738Z,3.50
2019-04-28T00:54:31.718Z,3.20
2019-04-28T00:55:35.120Z,3.27
2019-04-28T00:56:38.726Z,3.17
2019-04-28T00:57:42.308Z,3.30
2019-04-28T00:58:46.162Z,3.20
2019-04-28T00:59:56.738Z,3.12
2019-04-28T01:00:57.181Z,3.20
2019-04-28T01:02:03.221Z,4.62
2019-04-28T01:03:06.803Z,2.92
2019-04-28T01:04:11.817Z,3.87
2019-04-28T01:05:15.352Z,3.70
2019-04-28T01:06:19.243Z,2.83
2019-04-28T01:07:24.548Z,2.98
2019-04-28T01:08:27.803Z,3.27
2019-04-28T01:09:31.590Z,2.72
2019-04-28T01:10:35.019Z,2.67
2019-04-28T01:11:38.549Z,3.12
2019-04-28T01:12:41.600Z,3.87
2019-04-28T01:13:45.195Z,3.35
2019-04-28T01:14:49.778Z,3.33
2019-04-28T01:16:00.713Z,3.10
2019-04-28T01:17:10.355Z,3.83
2019-04-28T01:18:23.530Z,3.75
2019-04-28T01:19:30.214Z,3.85
2019-04-28T01:20:33.831Z,3.72
2019-04-28T01:21:54.703Z,3.15
2019-04-28T01:23:00.288Z,3.65
2019-04-28T01:24:03.327Z,3.37
2019-04-28T01:25:07.154Z,3.20
2019-04-28T01:26:10.737Z,2.58
2019-04-28T01:27:36.171Z,2.75
2019-04-28T01:28:39.857Z,3.10
2019-04-28T01:29:43.530Z,3.67
2019-04-28T01:31:00.988Z,3.65
2019-04-28T01:32:12.082Z,2.87
2019-04-28T01:33:30.482Z,3.02
2019-04-28T01:34:33.770Z,3.02
2019-04-28T01:35:39.186Z,3.33
2019-04-28T01:36:43.004Z,3.20
2019-04-28T01:37:46.587Z,3.20
2019-04-28T01:38:50.154Z,3.67
2019-04-28T01:39:53.734Z,2.98
2019-04-28T01:40:57.631Z,3.62
2019-04-28T01:42:01.045Z,3.15
2019-04-28T01:43:04.319Z,3.70
2019-04-28T01:44:07.942Z,3.08
2019-04-28T01:45:11.610Z,3.25
2019-04-28T01:46:15.487Z,3.55
2019-04-28T01:47:20.368Z,3.58
2019-04-28T01:48:26.758Z,3.35
2019-04-28T01:49:30.314Z,3.60
2019-04-28T01:50:33.394Z,3.65
2019-04-28T01:51:37.238Z,3.55
2019-04-28T01:52:40.807Z,2.83
2019-04-28T01:53:44.167Z,2.92
2019-04-28T01:54:50.136Z,3.00
2019-04-28T01:55:53.346Z,3.37
2019-04-28T01:56:58.585Z,3.60
2019-04-28T01:58:01.979Z,3.35
2019-04-28T01:59:05.019Z,3.77
2019-04-28T02:00:22.255Z,3.65
2019-04-28T02:01:16.263Z,3.33
2019-04-28T02:02:19.991Z,4.10
2019-04-28T02:03:26.126Z,3.22
2019-04-28T02:04:32.446Z,2.92
2019-04-28T02:05:35.031Z,3.05
2019-04-28T02:06:39.910Z,4.03
2019-04-28T02:07:43.590Z,3.08
2019-04-28T02:08:46.639Z,3.20
2019-04-28T02:09:49.679Z,4.20
2019-04-28T02:10:52.992Z,3.17
2019-04-28T02:11:56.319Z,3.20
2019-04-28T02:12:59.972Z,3.55
2019-04-28T02:14:03.300Z,4.22
2019-04-28T02:15:06.925Z,2.87
2019-04-28T02:16:10.860Z,3.08
2019-04-28T02:17:14.224Z,3.45
2019-04-28T02:18:19.765Z,3.52
2019-04-28T02:19:22.995Z,3.15
2019-04-28T02:20:26.602Z,2.90
2019-04-28T02:21:49.473Z,2.90
2019-04-28T02:22:56.758Z,3.30
2019-04-28T02:24:19.450Z,3.22
2019-04-28T02:25:23.200Z,2.87
2019-04-28T02:26:26.519Z,3.50
2019-04-28T02:27:30.386Z,3.15
2019-04-28T02:28:34.238Z,3.05
2019-04-28T02:29:41.519Z,3.10
2019-04-28T02:30:49.390Z,3.08
2019-04-28T02:31:51.058Z,3.37
2019-04-28T02:32:53.764Z,3.02
2019-04-28T02:33:56.803Z,2.60
2019-04-28T02:35:01.560Z,3.35
2019-04-28T02:36:08.574Z,3.60
2019-04-28T02:37:11.464Z,3.17
2019-04-28T02:38:15.508Z,3.00
2019-04-28T02:39:20.679Z,3.10
2019-04-28T02:40:23.754Z,2.60
2019-04-28T02:41:27.625Z,3.58
2019-04-28T02:42:31.204Z,2.70
2019-04-28T02:43:34.847Z,3.45
2019-04-28T02:44:40.332Z,3.35
2019-04-28T02:45:43.260Z,3.02
2019-04-28T02:46:46.854Z,3.72
2019-04-28T02:47:52.329Z,3.87
2019-04-28T02:48:56.034Z,3.35
2019-04-28T02:50:12.200Z,2.77
2019-04-28T02:51:22.070Z,3.17
2019-04-28T02:52:42.819Z,2.95
2019-04-28T02:53:50.886Z,3.00
2019-04-28T02:54:53.676Z,3.40
2019-04-28T02:55:56.716Z,2.77
2019-04-28T02:57:01.368Z,2.72
2019-04-28T02:58:04.901Z,3.08
2019-04-28T02:59:10.894Z,3.40
2019-04-28T03:00:13.685Z,3.75
2019-04-28T03:01:22.753Z,4.28
2019-04-28T03:02:22.449Z,3.20
2019-04-28T03:03:26.011Z,2.90
2019-04-28T03:04:30.759Z,3.65
2019-04-28T03:05:34.319Z,3.30
2019-04-28T03:06:40.536Z,3.42
2019-04-28T03:07:43.179Z,2.83
2019-04-28T03:08:46.496Z,3.37
2019-04-28T03:09:52.013Z,2.90
2019-04-28T03:10:55.115Z,3.12
2019-04-28T03:12:01.183Z,3.40
2019-04-28T03:13:03.484Z,3.33
2019-04-28T03:14:07.091Z,3.00
2019-04-28T03:15:10.704Z,3.58
2019-04-28T03:16:14.624Z,2.83
2019-04-28T03:17:20.550Z,3.55
2019-04-28T03:18:23.281Z,3.95
2019-04-28T03:19:26.857Z,2.62
2019-04-28T03:20:30.822Z,2.70
2019-04-28T03:21:34.746Z,3.40
2019-04-28T03:22:40.148Z,2.80
2019-04-28T03:23:43.133Z,2.95
2019-04-28T03:24:47.598Z,2.77
2019-04-28T03:26:05.785Z,2.70
2019-04-28T03:27:34.849Z,3.55
2019-04-28T03:28:50.703Z,2.72
2019-04-28T03:30:03.782Z,3.12
2019-04-28T03:32:03.767Z,2.80
2019-04-28T03:32:52.831Z,3.02
2019-04-28T03:33:55.214Z,3.08
2019-04-28T03:34:54.794Z,3.55
2019-04-28T03:36:07.072Z,3.20
2019-04-28T03:37:03.524Z,3.42
2019-04-28T03:38:07.420Z,3.15
2019-04-28T03:39:11.243Z,3.70
2019-04-28T03:40:14.550Z,3.12
2019-04-28T03:41:20.992Z,3.10
2019-04-28T03:42:23.155Z,3.15
2019-04-28T03:43:26.450Z,3.05
2019-04-28T03:44:30.932Z,2.77
2019-04-28T03:45:40.964Z,3.02
2019-04-28T03:46:51.878Z,3.72
2019-04-28T03:47:55.159Z,3.20
2019-04-28T03:49:00.485Z,3.40
2019-04-28T03:50:03.853Z,3.30
2019-04-28T03:51:07.428Z,3.77
2019-04-28T03:52:10.969Z,3.02
2019-04-28T03:53:14.575Z,3.10
2019-04-28T03:54:20.308Z,3.92
2019-04-28T03:55:23.203Z,3.25
2019-04-28T03:56:26.246Z,2.65
2019-04-28T03:57:31.412Z,3.55
2019-04-28T03:58:35.440Z,2.77
2019-04-28T03:59:41.249Z,2.60
2019-04-28T04:00:44.006Z,3.15
2019-04-28T04:01:56.571Z,2.80
2019-04-28T04:02:52.307Z,3.50
2019-04-28T04:03:55.602Z,2.95
2019-04-28T04:05:03.268Z,3.17
2019-04-28T04:06:04.502Z,3.22
2019-04-28T04:07:07.533Z,3.40
2019-04-28T04:08:11.116Z,3.20
2019-04-28T04:09:15.023Z,3.77
2019-04-28T04:10:43.492Z,3.62
2019-04-28T04:12:06.207Z,3.65
2019-04-28T04:13:16.569Z,3.25
2019-04-28T04:14:36.456Z,3.15
2019-04-28T04:15:50.610Z,3.37
2019-04-28T04:17:00.485Z,2.62
2019-04-28T04:18:07.764Z,3.10
2019-04-28T04:19:11.984Z,3.30
2019-04-28T04:20:20.714Z,2.83
2019-04-28T04:21:23.721Z,3.45
2019-04-28T04:22:26.744Z,2.92
2019-04-28T04:23:31.007Z,3.33
2019-04-28T04:24:34.758Z,3.20
2019-04-28T04:25:41.306Z,3.30
2019-04-28T04:26:43.923Z,2.95
2019-04-28T04:27:50.075Z,3.72
2019-04-28T04:28:52.551Z,2.87
2019-04-28T04:30:01.129Z,2.92
2019-04-28T04:31:03.899Z,2.95
2019-04-28T04:32:15.721Z,3.00
2019-04-28T04:33:13.810Z,3.12
2019-04-28T04:34:17.391Z,3.42
2019-04-28T04:35:21.449Z,2.83
2019-04-28T04:36:25.111Z,2.92
2019-04-28T04:37:30.744Z,3.00
2019-04-28T04:38:33.491Z,3.58
2019-04-28T04:39:36.851Z,2.95
2019-04-28T04:40:41.192Z,3.00
2019-04-28T04:41:45.343Z,3.22
2019-04-28T04:42:50.185Z,2.77
2019-04-28T04:43:53.591Z,3.05
2019-04-28T04:44:57.415Z,3.15
2019-04-28T04:46:31.940Z,2.65
2019-04-28T04:47:35.528Z,3.40
2019-04-28T04:48:40.830Z,2.75
2019-04-28T04:49:44.127Z,2.70
2019-04-28T04:50:48.007Z,2.65
2019-04-28T04:51:51.587Z,3.10
2019-04-28T04:52:55.171Z,2.72
2019-04-28T04:54:00.691Z,2.80
2019-04-28T04:55:03.220Z,2.42
2019-04-28T04:56:06.499Z,2.92
2019-04-28T04:57:11.122Z,2.60
2019-04-28T04:58:14.731Z,2.95
2019-04-28T04:59:20.225Z,2.92
2019-04-28T05:00:32.578Z,3.30
2019-04-28T05:01:53.959Z,2.87
2019-04-28T05:03:03.491Z,3.35
2019-04-28T05:04:24.391Z,2.83
2019-04-28T05:05:31.783Z,2.72
2019-04-28T05:06:35.210Z,2.67
2019-04-28T05:07:39.613Z,2.95
2019-04-28T05:08:43.449Z,3.10
2019-04-28T05:09:46.788Z,2.77
2019-04-28T05:10:50.508Z,3.08
2019-04-28T05:11:54.087Z,2.50
2019-04-28T05:12:57.646Z,2.90
2019-04-28T05:14:01.547Z,2.90
2019-04-28T05:15:04.802Z,2.85
2019-04-28T05:16:09.616Z,2.80
2019-04-28T05:17:12.835Z,2.87
2019-04-28T05:18:16.420Z,2.85
2019-04-28T05:19:20.008Z,2.83
2019-04-28T05:20:23.417Z,2.45
2019-04-28T05:21:26.950Z,2.52
2019-04-28T05:22:32.215Z,3.08
2019-04-28T05:23:49.303Z,2.87
2019-04-28T05:25:11.984Z,2.85
2019-04-28T05:26:15.646Z,2.30
2019-04-28T05:27:22.203Z,3.27
2019-04-28T05:28:24.070Z,3.20
2019-04-28T05:29:28.195Z,3.17
2019-04-28T05:30:34.800Z,2.75
2019-04-28T05:31:36.307Z,2.40
2019-04-28T05:32:45.221Z,2.58
2019-04-28T05:33:44.402Z,2.35
2019-04-28T05:34:50.231Z,2.90
2019-04-28T05:35:54.548Z,3.12
2019-04-28T05:36:57.935Z,3.02
2019-04-28T05:38:01.535Z,3.12
2019-04-28T05:39:05.846Z,3.22
2019-04-28T05:40:10.478Z,2.62
2019-04-28T05:41:14.506Z,3.30
2019-04-28T05:42:17.792Z,2.75
2019-04-28T05:43:21.473Z,2.90
2019-04-28T05:44:24.954Z,2.45
2019-04-28T05:45:29.167Z,2.65
2019-04-28T05:46:32.212Z,2.40
2019-04-28T05:47:36.084Z,3.05
2019-04-28T05:48:57.341Z,3.35
2019-04-28T05:50:10.619Z,3.02
2019-04-28T05:51:15.703Z,2.30
2019-04-28T05:52:36.539Z,2.60
2019-04-28T05:53:47.579Z,3.15
2019-04-28T05:54:55.284Z,2.30
2019-04-28T05:56:12.407Z,3.10
2019-04-28T05:57:20.769Z,2.33
2019-04-28T05:58:30.186Z,2.98
2019-04-28T05:59:46.360Z,2.85
2019-04-28T06:01:03.784Z,2.50
2019-04-28T06:02:12.284Z,2.20
2019-04-28T06:03:16.288Z,2.95
2019-04-28T06:04:21.849Z,2.62
2019-04-28T06:05:25.150Z,3.20
2019-04-28T06:06:31.810Z,2.40
2019-04-28T06:07:41.557Z,2.55
2019-04-28T06:08:55.937Z,3.47
2019-04-28T06:10:00.129Z,3.20
2019-04-28T06:11:22.319Z,2.95
2019-04-28T06:12:25.882Z,2.92
2019-04-28T06:13:30.285Z,2.67
2019-04-28T06:14:34.044Z,2.87
2019-04-28T06:15:37.394Z,3.12
2019-04-28T06:16:40.925Z,2.83
2019-04-28T06:17:44.296Z,3.17
2019-04-28T06:18:49.993Z,2.70
2019-04-28T06:19:53.182Z,3.15
2019-04-28T06:20:56.727Z,3.22
2019-04-28T06:22:00.283Z,2.58
2019-04-28T06:23:03.892Z,2.83
2019-04-28T06:24:07.470Z,3.30
2019-04-28T06:25:10.772Z,3.10
2019-04-28T06:26:13.920Z,2.80
2019-04-28T06:27:16.959Z,2.40
2019-04-28T06:28:20.230Z,2.55
2019-04-28T06:29:23.954Z,2.92
2019-04-28T06:30:27.518Z,3.05
2019-04-28T06:31:30.779Z,2.70
2019-04-28T06:32:33.890Z,2.42
2019-04-28T06:33:37.757Z,2.30
2019-04-28T06:34:40.795Z,2.55
2019-04-28T06:35:44.673Z,3.00
2019-04-28T06:36:48.531Z,2.62
2019-04-28T06:37:51.794Z,2.77
2019-04-28T06:38:55.071Z,2.60
2019-04-28T06:39:58.367Z,2.72
2019-04-28T06:41:01.430Z,3.12
2019-04-28T06:42:04.460Z,2.33
2019-04-28T06:43:08.094Z,2.83
2019-04-28T06:44:11.933Z,2.58
2019-04-28T06:45:15.209Z,2.98
2019-04-28T06:46:18.928Z,2.47
2019-04-28T06:47:22.835Z,2.90
2019-04-28T06:48:25.954Z,2.85
2019-04-28T06:49:29.163Z,2.87
2019-04-28T06:50:32.720Z,2.80
2019-04-28T06:51:36.004Z,2.52
2019-04-28T06:52:39.607Z,2.70
2019-04-28T06:53:42.934Z,2.58
2019-04-28T06:54:46.784Z,2.55
2019-04-28T06:55:50.191Z,2.83
2019-04-28T06:56:53.259Z,2.55
2019-04-28T06:57:56.530Z,1.98
2019-04-28T06:59:00.081Z,2.50
2019-04-28T07:00:03.693Z,2.47
2019-04-28T07:01:07.294Z,2.50
2019-04-28T07:02:10.866Z,2.45
2019-04-28T07:03:22.964Z,2.12
2019-04-28T07:04:19.484Z,2.62
2019-04-28T07:05:23.031Z,2.27
2019-04-28T07:06:26.851Z,2.30
2019-04-28T07:07:29.953Z,2.27
2019-04-28T07:08:33.257Z,2.02
2019-04-28T07:09:36.899Z,2.12
2019-04-28T07:10:40.502Z,2.37
2019-04-28T07:11:44.181Z,2.08
2019-04-28T07:12:47.466Z,2.35
2019-04-28T07:13:57.153Z,2.58
2019-04-28T07:15:01.031Z,1.90
2019-04-28T07:16:05.082Z,2.62
2019-04-28T07:17:08.257Z,2.58
2019-04-28T07:18:11.918Z,2.02
2019-04-28T07:19:15.853Z,2.40
2019-04-28T07:20:34.047Z,2.30
2019-04-28T07:22:05.362Z,2.02
2019-04-28T07:23:09.296Z,2.20
2019-04-28T07:25:30.583Z,1.82
2019-04-28T07:26:35.857Z,2.20
2019-04-28T07:27:40.606Z,1.72
2019-04-28T07:28:49.775Z,2.22
2019-04-28T07:29:54.465Z,2.00
2019-04-28T07:30:59.731Z,2.12
2019-04-28T07:32:04.589Z,2.45
2019-04-28T07:33:09.564Z,2.02
2019-04-28T07:34:14.534Z,2.15
2019-04-28T07:35:19.579Z,1.75
2019-04-28T07:36:24.722Z,2.05
2019-04-28T07:37:30.249Z,1.90
2019-04-28T07:38:35.223Z,2.17
2019-04-28T07:39:41.418Z,1.95
2019-04-28T07:40:46.470Z,2.05
2019-04-28T07:41:52.043Z,2.10
2019-04-28T07:42:57.048Z,2.15
2019-04-28T07:44:02.016Z,2.25
2019-04-28T07:45:06.827Z,2.87
2019-04-28T07:46:11.893Z,2.27
2019-04-28T07:47:16.746Z,2.05
2019-04-28T07:48:21.841Z,2.70
2019-04-28T07:49:27.107Z,1.90
2019-04-28T07:50:32.108Z,2.17
2019-04-28T07:51:52.006Z,2.42
2019-04-28T07:53:05.859Z,2.37
2019-04-28T07:54:11.850Z,2.40
2019-04-28T07:55:16.671Z,2.40
2019-04-28T07:56:22.048Z,2.40
2019-04-28T07:57:27.337Z,2.47
2019-04-28T07:58:32.607Z,2.17
2019-04-28T07:59:37.866Z,2.37
2019-04-28T08:00:42.834Z,2.22
2019-04-28T08:01:47.894Z,2.12
2019-04-28T08:02:52.873Z,2.15
2019-04-28T08:03:57.843Z,1.92
2019-04-28T08:05:02.571Z,2.50
2019-04-28T08:06:07.856Z,1.90
2019-04-28T08:07:12.832Z,2.40
2019-04-28T08:08:18.392Z,2.02
2019-04-28T08:09:23.803Z,2.20
2019-04-28T08:10:28.902Z,1.92
2019-04-28T08:11:33.923Z,2.22
2019-04-28T08:12:38.730Z,1.95
2019-04-28T08:13:43.997Z,2.08
2019-04-28T08:14:49.306Z,2.33
2019-04-28T08:15:54.037Z,2.17
2019-04-28T08:16:58.775Z,2.25
2019-04-28T08:18:03.798Z,2.47
2019-04-28T08:19:09.131Z,2.65
2019-04-28T08:20:14.046Z,2.75
2019-04-28T08:21:18.734Z,2.55
2019-04-28T08:22:23.870Z,2.58
2019-04-28T08:23:28.343Z,2.20
2019-04-28T08:24:33.617Z,2.47
2019-04-28T08:25:38.914Z,2.62
2019-04-28T08:26:43.364Z,2.42
2019-04-28T08:27:48.611Z,2.50
2019-04-28T08:28:53.620Z,2.83
2019-04-28T08:29:59.029Z,3.02
2019-04-28T08:31:05.459Z,2.62
2019-04-28T08:32:18.298Z,2.62
2019-04-28T08:33:34.742Z,2.83
2019-04-28T08:34:39.450Z,2.45
2019-04-28T08:35:43.948Z,2.45
2019-04-28T08:36:48.573Z,2.50
2019-04-28T08:37:53.448Z,3.45
2019-04-28T08:38:58.151Z,2.40
2019-04-28T08:40:03.456Z,2.95
2019-04-28T08:41:08.405Z,2.47
2019-04-28T08:42:13.482Z,2.77
2019-04-28T08:43:18.835Z,2.58
2019-04-28T08:44:23.835Z,2.37
2019-04-28T08:45:29.117Z,2.62
2019-04-28T08:46:33.829Z,3.42
2019-04-28T08:47:39.130Z,3.08
2019-04-28T08:48:44.375Z,3.10
2019-04-28T08:49:49.069Z,2.70
2019-04-28T08:50:54.398Z,2.87
2019-04-28T08:51:59.092Z,3.35
2019-04-28T08:53:03.865Z,3.12
2019-04-28T08:54:08.345Z,2.42
2019-04-28T08:55:13.097Z,2.35
2019-04-28T08:56:18.072Z,2.30
2019-04-28T08:57:23.042Z,2.52
2019-04-28T08:58:28.610Z,2.58
2019-04-28T08:59:33.674Z,2.85
2019-04-28T09:00:38.638Z,2.40
2019-04-28T09:01:43.611Z,2.50
2019-04-28T09:02:48.112Z,2.20
2019-04-28T09:03:52.760Z,2.50
2019-04-28T09:04:57.725Z,2.00
2019-04-28T09:06:02.474Z,2.45
2019-04-28T09:07:07.733Z,2.50
2019-04-28T09:08:12.445Z,2.25
2019-04-28T09:09:18.161Z,2.42
2019-04-28T09:10:23.121Z,2.40
2019-04-28T09:11:27.723Z,2.25
2019-04-28T09:12:32.441Z,2.50
2019-04-28T09:13:37.924Z,2.27
2019-04-28T09:14:43.231Z,2.30
2019-04-28T09:15:48.787Z,2.47
2019-04-28T09:16:54.072Z,2.35
2019-04-28T09:17:59.358Z,2.50
2019-04-28T09:19:04.228Z,3.12
2019-04-28T10:37:39.241Z,1.45
2019-04-28T10:38:45.254Z,1.30
2019-04-28T10:39:56.924Z,1.55
2019-04-28T10:41:08.999Z,1.40
2019-04-28T10:42:13.759Z,1.40
2019-04-28T10:43:18.720Z,1.57
2019-04-28T10:44:23.746Z,1.40
2019-04-28T10:45:30.355Z,1.42
2019-04-28T10:46:35.631Z,1.30
2019-04-28T10:47:40.880Z,1.27
2019-04-28T10:48:45.575Z,1.27
2019-04-28T10:49:50.551Z,1.25
2019-04-28T10:50:55.524Z,1.70
2019-04-28T10:52:00.056Z,1.60
2019-04-28T10:53:05.056Z,1.42
2019-04-28T10:54:09.800Z,1.37
2019-04-28T10:55:14.820Z,1.30
2019-04-28T10:56:20.088Z,1.20
2019-04-28T10:57:25.091Z,1.27
2019-04-28T10:58:30.504Z,1.50
2019-04-28T10:59:35.794Z,1.60
2019-04-28T11:00:41.287Z,1.25
2019-04-28T11:01:45.974Z,1.50
2019-04-28T11:02:50.664Z,1.72
2019-04-28T11:03:59.502Z,1.30
2019-04-28T11:05:17.483Z,1.20
2019-04-28T11:06:22.496Z,1.62
2019-04-28T11:07:27.453Z,1.20
2019-04-28T11:08:48.763Z,1.40
2019-04-28T11:10:09.044Z,1.17
2019-04-28T11:11:19.566Z,1.20
2019-04-28T11:12:26.904Z,1.00
2019-04-28T11:13:32.634Z,0.90
2019-04-28T11:14:37.743Z,0.90
2019-04-28T11:15:42.409Z,1.25
2019-04-28T11:16:47.400Z,1.10
2019-04-28T11:17:52.374Z,1.00
2019-04-28T11:18:56.880Z,0.80
2019-04-28T11:20:01.344Z,0.70
2019-04-28T11:21:06.105Z,0.80
2019-04-28T11:22:11.019Z,0.80
2019-04-28T11:23:16.552Z,0.70
2019-04-28T11:24:21.886Z,0.60
2019-04-28T11:25:27.629Z,0.50
2019-04-28T11:26:32.335Z,0.62
2019-04-28T11:27:37.024Z,0.70
2019-04-28T11:28:41.982Z,0.40
2019-04-28T11:29:47.431Z,0.40
2019-04-28T11:30:52.113Z,0.60
2019-04-28T11:31:57.100Z,0.90
2019-04-28T11:33:12.591Z,0.80
2019-04-28T11:34:26.257Z,1.00
2019-04-28T11:35:32.052Z,1.25
2019-04-28T11:36:36.484Z,1.10
2019-04-28T11:37:43.799Z,0.88
2019-04-28T11:38:48.533Z,0.80
2019-04-28T11:39:53.626Z,0.78
2019-04-28T11:40:58.674Z,0.93
2019-04-28T11:42:03.743Z,0.85
2019-04-28T11:43:15.026Z,2.30
2019-04-28T11:44:20.281Z,0.80
2019-04-28T11:45:26.686Z,1.00
2019-04-28T11:46:31.747Z,0.93
2019-04-28T11:47:36.510Z,0.90
2019-04-28T11:48:41.590Z,0.80
2019-04-28T11:49:47.050Z,0.88
2019-04-28T11:50:52.025Z,0.75
2019-04-28T11:51:57.023Z,0.90
2019-04-28T11:53:01.467Z,1.10
2019-04-28T11:54:06.109Z,1.50
2019-04-28T11:55:11.559Z,0.70
2019-04-28T11:56:16.279Z,1.50
2019-04-28T11:57:20.989Z,1.00
2019-04-28T11:58:25.761Z,0.93
2019-04-28T11:59:30.538Z,0.82
2019-04-28T12:00:36.132Z,0.80
2019-04-28T12:01:41.107Z,1.12
2019-04-28T12:02:45.811Z,1.27
2019-04-28T12:03:55.024Z,1.10
2019-04-28T12:05:00.535Z,1.10
2019-04-28T12:06:07.951Z,1.10
2019-04-28T12:07:13.157Z,1.05
2019-04-28T12:08:17.615Z,1.17
2019-04-28T12:09:41.241Z,1.35
2019-04-28T12:11:14.404Z,1.37
2019-04-28T12:12:37.113Z,1.37
2019-04-28T12:13:51.387Z,1.65
2019-04-28T12:15:03.548Z,1.10
2019-04-28T12:16:17.554Z,1.00
2019-04-28T12:17:41.402Z,3.52
2019-04-28T12:19:05.517Z,1.20
2019-04-28T12:20:14.477Z,1.00
2019-04-28T12:21:19.780Z,1.20
2019-04-28T12:22:24.818Z,1.17
2019-04-28T12:23:32.246Z,1.32
2019-04-28T12:24:37.416Z,1.90
2019-04-28T12:25:43.970Z,1.20
2019-04-28T12:26:48.996Z,2.30
2019-04-28T12:27:54.535Z,1.22
2019-04-28T12:29:00.921Z,17.50
2019-04-28T12:30:06.536Z,1.30
2019-04-28T12:31:11.259Z,0.80
2019-04-28T12:32:15.759Z,0.90
2019-04-28T12:33:20.717Z,0.70
2019-04-28T12:34:27.374Z,0.47
2019-04-28T12:35:32.549Z,0.57
2019-04-28T12:36:37.401Z,0.55
2019-04-28T12:37:42.387Z,8.13
2019-04-28T12:38:47.520Z,1.22
2019-04-28T12:39:52.111Z,0.60
2019-04-28T12:40:59.950Z,0.93
2019-04-28T12:42:05.082Z,0.70
2019-04-28T12:43:10.445Z,0.60
2019-04-28T12:44:15.065Z,0.70
2019-04-28T12:45:20.104Z,1.22
2019-04-28T12:46:27.643Z,1.00
2019-04-28T12:47:32.187Z,0.90
2019-04-28T12:48:37.438Z,0.80
2019-04-28T12:49:53.696Z,0.90
2019-04-28T12:50:58.390Z,1.10
2019-04-28T12:52:03.356Z,0.95
2019-04-28T12:53:08.142Z,0.90
2019-04-28T12:54:14.904Z,0.82
2019-04-28T12:55:19.423Z,0.85
2019-04-28T12:56:24.371Z,0.90
2019-04-28T12:57:29.237Z,0.88
2019-04-28T12:58:34.116Z,0.90
2019-04-28T12:59:44.274Z,0.90
2019-04-28T13:01:11.763Z,0.80
2019-04-28T13:02:35.597Z,0.70
2019-04-28T13:03:59.731Z,0.78
2019-04-28T13:05:08.631Z,0.65
2019-04-28T13:06:15.548Z,0.80
2019-04-28T13:07:20.267Z,0.70
2019-04-28T13:08:25.240Z,0.80
2019-04-28T13:09:30.484Z,1.10
2019-04-28T13:10:35.432Z,0.78
2019-04-28T13:11:40.690Z,0.93
2019-04-28T13:12:45.626Z,0.90
2019-04-28T13:13:50.859Z,0.98
2019-04-28T13:14:55.764Z,0.82
2019-04-28T13:16:00.517Z,0.90
2019-04-28T13:17:05.642Z,1.00
2019-04-28T13:18:10.290Z,0.82
2019-04-28T13:19:15.690Z,0.90
2019-04-28T13:20:20.372Z,1.10
2019-04-28T13:21:25.910Z,0.70
2019-04-28T13:22:30.583Z,0.70
2019-04-28T13:23:35.869Z,0.65
2019-04-28T13:24:40.643Z,0.80
2019-04-28T13:25:45.695Z,0.60
2019-04-28T13:26:52.256Z,0.50
2019-04-28T13:27:58.317Z,0.60
2019-04-28T13:29:03.297Z,0.42
2019-04-28T13:30:08.426Z,0.80
2019-04-28T13:31:13.133Z,0.42
2019-04-28T13:32:17.895Z,0.60
2019-04-28T13:33:22.946Z,0.40
2019-04-28T13:34:28.699Z,0.57
2019-04-28T13:35:33.669Z,0.42
2019-04-28T13:36:38.388Z,0.40
2019-04-28T13:37:43.359Z,1.05
2019-04-28T13:38:48.075Z,0.80
2019-04-28T13:39:56.848Z,0.62
2019-04-28T13:41:01.581Z,0.37
2019-04-28T13:42:06.198Z,0.45
2019-04-28T13:43:11.463Z,0.40
2019-04-28T13:44:19.831Z,0.40
2019-04-28T13:45:25.080Z,0.53
2019-04-28T13:46:30.051Z,0.50
2019-04-28T13:47:35.266Z,0.50
2019-04-28T13:48:40.008Z,0.33
2019-04-28T13:49:53.076Z,0.60
2019-04-28T13:50:57.870Z,0.50
2019-04-28T13:52:02.568Z,0.50
2019-04-28T13:53:08.143Z,0.70
2019-04-28T13:54:14.541Z,0.50
2019-04-28T13:55:37.695Z,0.50
2019-04-28T13:56:42.716Z,0.50
2019-04-28T13:57:47.689Z,0.50
2019-04-28T13:58:58.482Z,0.60
2019-04-28T14:00:05.198Z,0.47
2019-04-28T14:01:28.781Z,0.55
2019-04-28T14:02:43.929Z,0.50
2019-04-28T14:04:06.201Z,0.62
2019-04-28T14:05:35.770Z,0.70
2019-04-28T14:06:43.828Z,0.70
2019-04-28T14:07:48.787Z,0.68
2019-04-28T14:08:53.506Z,0.57
2019-04-28T14:09:58.755Z,0.80
2019-04-28T14:11:03.483Z,0.82
2019-04-28T14:12:08.539Z,0.68
2019-04-28T14:13:13.254Z,0.62
2019-04-28T14:14:18.211Z,0.62
2019-04-28T14:15:22.943Z,0.90
2019-04-28T14:16:27.928Z,0.50
2019-04-28T14:17:32.387Z,0.60
2019-04-28T14:18:37.392Z,0.80
2019-04-28T14:19:42.149Z,0.72
2019-04-28T14:20:46.897Z,0.80
2019-04-28T14:21:51.605Z,0.80
2019-04-28T14:22:56.857Z,0.93
2019-04-28T14:24:01.579Z,0.80
2019-04-28T14:25:07.083Z,0.80
2019-04-28T14:26:12.026Z,0.95
2019-04-28T14:27:17.274Z,0.95
2019-04-28T14:28:23.927Z,0.60
2019-04-28T14:29:28.903Z,0.90
2019-04-28T14:30:33.668Z,0.72
2019-04-28T14:31:38.677Z,0.90
2019-04-28T14:32:43.627Z,0.70
2019-04-28T14:33:48.863Z,0.70
2019-04-28T14:34:54.436Z,0.60
2019-04-28T14:35:59.399Z,0.50
2019-04-28T14:37:04.236Z,0.72
2019-04-28T14:38:09.442Z,0.70
2019-04-28T14:39:14.746Z,0.60
2019-04-28T14:40:19.646Z,0.60
2019-04-28T14:41:25.221Z,0.60
2019-04-28T14:42:29.983Z,0.60
2019-04-28T14:43:34.980Z,1.00
2019-04-28T14:44:39.494Z,0.40
2019-04-28T14:45:44.417Z,0.57
2019-04-28T14:46:49.427Z,0.47
2019-04-28T14:47:54.711Z,0.60
2019-04-28T14:48:59.439Z,0.50
2019-04-28T14:50:04.135Z,0.68
2019-04-28T14:51:08.553Z,0.57
2019-04-28T14:52:13.801Z,0.80
2019-04-28T14:53:18.741Z,0.70
2019-04-28T14:54:24.161Z,0.62
2019-04-28T14:55:29.286Z,0.57
2019-04-28T14:56:33.685Z,0.80
2019-04-28T14:57:38.655Z,0.80
2019-04-28T14:58:43.402Z,0.60
2019-04-28T14:59:48.240Z,0.75
2019-04-28T15:00:58.538Z,0.53
2019-04-28T15:02:28.886Z,0.65
2019-04-28T15:03:34.790Z,0.65
2019-04-28T15:05:07.537Z,0.62
2019-04-28T15:06:26.506Z,0.68
2019-04-28T15:07:49.156Z,0.80
2019-04-28T15:09:05.026Z,0.75
2019-04-28T15:10:27.450Z,0.80
2019-04-28T15:11:41.492Z,0.70
2019-04-28T15:12:46.557Z,0.62
2019-04-28T15:13:51.567Z,0.57
2019-04-28T15:14:56.599Z,0.68
2019-04-28T15:16:01.379Z,0.70
2019-04-28T15:17:06.594Z,0.70
2019-04-28T15:18:11.481Z,0.82
2019-04-28T15:19:17.844Z,0.60
2019-04-28T15:20:23.027Z,0.70
2019-04-28T15:21:27.688Z,0.60
2019-04-28T15:22:32.459Z,0.65
2019-04-28T15:23:37.443Z,0.80
2019-04-28T15:24:42.443Z,0.80
2019-04-28T15:25:47.435Z,0.90
2019-04-28T15:26:52.110Z,0.93
2019-04-28T15:27:57.412Z,0.80
2019-04-28T15:29:02.651Z,0.70
2019-04-28T15:30:07.385Z,0.70
2019-04-28T15:31:12.336Z,0.70
2019-04-28T15:32:17.591Z,0.85
2019-04-28T15:33:22.113Z,0.78
2019-04-28T15:34:27.435Z,0.70
2019-04-28T15:35:32.531Z,0.80
2019-04-28T15:36:37.598Z,0.80
2019-04-28T15:37:43.889Z,1.07
2019-04-28T15:38:49.122Z,0.70
2019-04-28T15:39:53.812Z,0.80
2019-04-28T15:40:59.091Z,0.85
2019-04-28T15:42:03.784Z,0.90
2019-04-28T15:43:08.754Z,1.02
2019-04-28T15:44:13.724Z,1.05
2019-04-28T15:45:18.764Z,0.70
2019-04-28T15:46:23.978Z,0.80
2019-04-28T15:47:28.953Z,0.75
2019-04-28T15:48:33.386Z,0.53
2019-04-28T15:49:38.386Z,0.70
2019-04-28T15:50:43.431Z,0.75
2019-04-28T15:51:47.880Z,0.68
2019-04-28T15:52:52.859Z,0.72
2019-04-28T15:53:57.556Z,0.70
2019-04-28T15:55:02.997Z,0.62
2019-04-28T15:56:20.112Z,0.80
2019-04-28T15:57:25.104Z,0.80
2019-04-28T15:58:30.995Z,0.50
2019-04-28T15:59:35.716Z,0.70
2019-04-28T16:00:40.977Z,0.70